sensor_id;sensor_type;location;lat;lon;timestamp;P1;durP1;ratioP1;P2;durP2;ratioP2
2175;SDS011;1094;49.902;10.876;2022-12-11T00:02:17;37.80;;;34.15;;
2175;SDS011;1094;49.902;10.876;2022-12-11T00:04:43;35.55;;;32.13;;
2175;SDS011;1094;49.902;10.876;2022-12-11T00:07:09;37.80;;;33.80;;
2175;SDS011;1094;49.902;10.876;2022-12-11T00:09:35;37.07;;;33.10;;
2175;SDS011;1094;49.902;10.876;2022-12-11T00:12:01;35.83;;;32.13;;
2175;SDS011;1094;49.902;10.876;2022-12-11T00:14:27;36.53;;;32.87;;
2175;SDS011;1094;49.902;10.876;2022-12-11T00:16:53;43.17;;;34.35;;
2175;SDS011;1094;49.902;10.876;2022-12-11T00:19:19;38.70;;;34.90;;
2175;SDS011;1094;49.902;10.876;2022-12-11T00:21:45;43.50;;;32.45;;
2175;SDS011;1094;49.902;10.876;2022-12-11T00:24:11;36.50;;;32.72;;
2175;SDS011;1094;49.902;10.876;2022-12-11T00:26:37;37.50;;;33.70;;
2175;SDS011;1094;49.902;10.876;2022-12-11T00:29:03;38.00;;;34.10;;
2175;SDS011;1094;49.902;10.876;2022-12-11T00:31:29;40.25;;;34.83;;
2175;SDS011;1094;49.902;10.876;2022-12-11T00:33:55;37.20;;;33.43;;
2175;SDS011;1094;49.902;10.876;2022-12-11T00:36:25;35.33;;;31.70;;
2175;SDS011;1094;49.902;10.876;2022-12-11T00:38:51;38.50;;;34.50;;
2175;SDS011;1094;49.902;10.876;2022-12-11T00:41:17;36.67;;;32.80;;
2175;SDS011;1094;49.902;10.876;2022-12-11T00:43:43;34.53;;;31.03;;
2175;SDS011;1094;49.902;10.876;2022-12-11T00:46:09;34.43;;;31.27;;
2175;SDS011;1094;49.902;10.876;2022-12-11T00:48:35;36.55;;;32.88;;
2175;SDS011;1094;49.902;10.876;2022-12-11T00:51:01;36.00;;;32.30;;
2175;SDS011;1094;49.902;10.876;2022-12-11T00:53:27;38.57;;;34.47;;
2175;SDS011;1094;49.902;10.876;2022-12-11T00:55:53;37.33;;;33.47;;
2175;SDS011;1094;49.902;10.876;2022-12-11T00:58:19;37.53;;;33.73;;
2175;SDS011;1094;49.902;10.876;2022-12-11T01:00:45;36.63;;;32.88;;
2175;SDS011;1094;49.902;10.876;2022-12-11T01:03:13;36.42;;;32.42;;
2175;SDS011;1094;49.902;10.876;2022-12-11T01:05:40;38.08;;;34.00;;
2175;SDS011;1094;49.902;10.876;2022-12-11T01:08:06;36.23;;;32.73;;
2175;SDS011;1094;49.902;10.876;2022-12-11T01:10:32;38.33;;;34.27;;
2175;SDS011;1094;49.902;10.876;2022-12-11T01:12:59;37.35;;;33.33;;
2175;SDS011;1094;49.902;10.876;2022-12-11T01:15:29;34.30;;;30.67;;
2175;SDS011;1094;49.902;10.876;2022-12-11T01:17:56;34.80;;;31.35;;
2175;SDS011;1094;49.902;10.876;2022-12-11T01:20:22;36.13;;;32.30;;
2175;SDS011;1094;49.902;10.876;2022-12-11T01:22:51;36.53;;;32.88;;
2175;SDS011;1094;49.902;10.876;2022-12-11T01:25:17;38.03;;;34.17;;
2175;SDS011;1094;49.902;10.876;2022-12-11T01:27:43;33.70;;;30.77;;
2175;SDS011;1094;49.902;10.876;2022-12-11T01:30:09;34.85;;;31.23;;
2175;SDS011;1094;49.902;10.876;2022-12-11T01:32:35;36.97;;;32.03;;
2175;SDS011;1094;49.902;10.876;2022-12-11T01:35:02;36.28;;;32.67;;
2175;SDS011;1094;49.902;10.876;2022-12-11T01:37:28;35.75;;;32.20;;
2175;SDS011;1094;49.902;10.876;2022-12-11T01:39:54;36.42;;;32.72;;
2175;SDS011;1094;49.902;10.876;2022-12-11T01:42:20;39.25;;;33.35;;
2175;SDS011;1094;49.902;10.876;2022-12-11T01:47:12;35.90;;;32.40;;
2175;SDS011;1094;49.902;10.876;2022-12-11T01:49:39;37.72;;;33.58;;
2175;SDS011;1094;49.902;10.876;2022-12-11T01:52:13;35.85;;;32.15;;
2175;SDS011;1094;49.902;10.876;2022-12-11T01:54:41;35.22;;;31.48;;
2175;SDS011;1094;49.902;10.876;2022-12-11T01:57:08;38.20;;;34.05;;
2175;SDS011;1094;49.902;10.876;2022-12-11T01:59:38;37.67;;;33.78;;
2175;SDS011;1094;49.902;10.876;2022-12-11T02:04:39;38.70;;;34.78;;
2175;SDS011;1094;49.902;10.876;2022-12-11T02:07:06;41.60;;;36.33;;
2175;SDS011;1094;49.902;10.876;2022-12-11T02:09:34;41.50;;;36.17;;
2175;SDS011;1094;49.902;10.876;2022-12-11T02:17:06;39.57;;;35.20;;
2175;SDS011;1094;49.902;10.876;2022-12-11T02:22:02;43.10;;;33.70;;
2175;SDS011;1094;49.902;10.876;2022-12-11T02:29:51;37.28;;;33.42;;
2175;SDS011;1094;49.902;10.876;2022-12-11T02:32:21;39.10;;;34.55;;
2175;SDS011;1094;49.902;10.876;2022-12-11T02:34:54;36.13;;;32.47;;
2175;SDS011;1094;49.902;10.876;2022-12-11T02:37:23;35.95;;;32.28;;
2175;SDS011;1094;49.902;10.876;2022-12-11T02:39:52;37.10;;;33.10;;
2175;SDS011;1094;49.902;10.876;2022-12-11T02:42:18;35.78;;;32.15;;
2175;SDS011;1094;49.902;10.876;2022-12-11T02:44:46;37.17;;;33.55;;
2175;SDS011;1094;49.902;10.876;2022-12-11T02:47:14;39.92;;;35.50;;
2175;SDS011;1094;49.902;10.876;2022-12-11T02:49:42;36.90;;;32.75;;
2175;SDS011;1094;49.902;10.876;2022-12-11T02:52:09;36.75;;;33.03;;
2175;SDS011;1094;49.902;10.876;2022-12-11T02:54:36;38.42;;;34.42;;
2175;SDS011;1094;49.902;10.876;2022-12-11T02:57:04;39.10;;;33.55;;
2175;SDS011;1094;49.902;10.876;2022-12-11T02:59:33;39.00;;;35.03;;
2175;SDS011;1094;49.902;10.876;2022-12-11T03:02:01;44.03;;;35.75;;
2175;SDS011;1094;49.902;10.876;2022-12-11T03:04:27;38.13;;;34.15;;
2175;SDS011;1094;49.902;10.876;2022-12-11T03:06:54;41.95;;;36.03;;
2175;SDS011;1094;49.902;10.876;2022-12-11T03:09:23;41.88;;;36.05;;
2175;SDS011;1094;49.902;10.876;2022-12-11T03:11:50;40.57;;;35.90;;
2175;SDS011;1094;49.902;10.876;2022-12-11T03:14:16;41.58;;;36.42;;
2175;SDS011;1094;49.902;10.876;2022-12-11T03:17:29;40.42;;;36.15;;
2175;SDS011;1094;49.902;10.876;2022-12-11T03:19:36;38.53;;;34.42;;
2175;SDS011;1094;49.902;10.876;2022-12-11T03:22:11;43.78;;;35.22;;
2175;SDS011;1094;49.902;10.876;2022-12-11T03:24:54;44.60;;;35.97;;
2175;SDS011;1094;49.902;10.876;2022-12-11T03:29:57;40.20;;;35.27;;
2175;SDS011;1094;49.902;10.876;2022-12-11T03:32:25;44.40;;;36.28;;
2175;SDS011;1094;49.902;10.876;2022-12-11T03:34:53;45.70;;;36.17;;
2175;SDS011;1094;49.902;10.876;2022-12-11T03:37:20;43.90;;;35.80;;
2175;SDS011;1094;49.902;10.876;2022-12-11T03:39:48;40.80;;;36.38;;
2175;SDS011;1094;49.902;10.876;2022-12-11T03:42:16;38.70;;;34.63;;
2175;SDS011;1094;49.902;10.876;2022-12-11T03:44:44;47.95;;;36.50;;
2175;SDS011;1094;49.902;10.876;2022-12-11T03:47:12;47.40;;;36.72;;
2175;SDS011;1094;49.902;10.876;2022-12-11T03:49:41;49.03;;;39.03;;
2175;SDS011;1094;49.902;10.876;2022-12-11T03:52:08;43.90;;;36.72;;
2175;SDS011;1094;49.902;10.876;2022-12-11T03:54:35;40.58;;;36.30;;
2175;SDS011;1094;49.902;10.876;2022-12-11T03:57:01;43.92;;;36.90;;
2175;SDS011;1094;49.902;10.876;2022-12-11T03:59:28;43.58;;;35.58;;
2175;SDS011;1094;49.902;10.876;2022-12-11T04:01:54;38.13;;;33.97;;
2175;SDS011;1094;49.902;10.876;2022-12-11T04:04:20;41.93;;;36.33;;
2175;SDS011;1094;49.902;10.876;2022-12-11T04:06:46;40.97;;;36.63;;
2175;SDS011;1094;49.902;10.876;2022-12-11T04:09:12;38.25;;;34.25;;
2175;SDS011;1094;49.902;10.876;2022-12-11T04:11:38;44.60;;;38.53;;
2175;SDS011;1094;49.902;10.876;2022-12-11T04:14:07;40.40;;;35.30;;
2175;SDS011;1094;49.902;10.876;2022-12-11T04:16:52;41.05;;;36.72;;
2175;SDS011;1094;49.902;10.876;2022-12-11T04:19:18;37.60;;;33.75;;
2175;SDS011;1094;49.902;10.876;2022-12-11T04:22:03;44.08;;;35.15;;
2175;SDS011;1094;49.902;10.876;2022-12-11T04:24:48;39.08;;;34.78;;
2175;SDS011;1094;49.902;10.876;2022-12-11T04:27:14;39.75;;;34.92;;
2175;SDS011;1094;49.902;10.876;2022-12-11T04:30:02;41.05;;;32.90;;
2175;SDS011;1094;49.902;10.876;2022-12-11T04:32:28;39.95;;;34.22;;
2175;SDS011;1094;49.902;10.876;2022-12-11T04:34:54;42.10;;;35.43;;
2175;SDS011;1094;49.902;10.876;2022-12-11T04:37:19;38.03;;;34.00;;
2175;SDS011;1094;49.902;10.876;2022-12-11T04:39:45;44.63;;;35.53;;
2175;SDS011;1094;49.902;10.876;2022-12-11T04:42:11;45.10;;;35.57;;
2175;SDS011;1094;49.902;10.876;2022-12-11T04:44:37;42.53;;;35.53;;
2175;SDS011;1094;49.902;10.876;2022-12-11T04:47:03;43.00;;;33.03;;
2175;SDS011;1094;49.902;10.876;2022-12-11T04:49:29;38.23;;;34.20;;
2175;SDS011;1094;49.902;10.876;2022-12-11T04:51:55;37.10;;;33.20;;
2175;SDS011;1094;49.902;10.876;2022-12-11T04:54:21;37.17;;;33.30;;
2175;SDS011;1094;49.902;10.876;2022-12-11T04:56:47;40.83;;;35.20;;
2175;SDS011;1094;49.902;10.876;2022-12-11T04:59:13;40.17;;;35.00;;
2175;SDS011;1094;49.902;10.876;2022-12-11T05:01:39;37.77;;;33.93;;
2175;SDS011;1094;49.902;10.876;2022-12-11T05:04:05;37.37;;;33.47;;
2175;SDS011;1094;49.902;10.876;2022-12-11T05:06:31;37.77;;;33.97;;
2175;SDS011;1094;49.902;10.876;2022-12-11T05:08:57;36.37;;;32.43;;
2175;SDS011;1094;49.902;10.876;2022-12-11T05:11:23;39.53;;;35.83;;
2175;SDS011;1094;49.902;10.876;2022-12-11T05:13:49;35.10;;;31.20;;
2175;SDS011;1094;49.902;10.876;2022-12-11T05:16:15;38.90;;;33.30;;
2175;SDS011;1094;49.902;10.876;2022-12-11T05:18:41;36.40;;;32.67;;
2175;SDS011;1094;49.902;10.876;2022-12-11T05:21:09;33.63;;;30.33;;
2175;SDS011;1094;49.902;10.876;2022-12-11T05:23:35;36.10;;;32.38;;
2175;SDS011;1094;49.902;10.876;2022-12-11T05:26:05;36.75;;;32.88;;
2175;SDS011;1094;49.902;10.876;2022-12-11T05:28:33;35.90;;;32.47;;
2175;SDS011;1094;49.902;10.876;2022-12-11T05:31:03;35.92;;;32.30;;
2175;SDS011;1094;49.902;10.876;2022-12-11T05:33:30;38.80;;;34.75;;
2175;SDS011;1094;49.902;10.876;2022-12-11T05:35:56;37.63;;;34.00;;
2175;SDS011;1094;49.902;10.876;2022-12-11T05:38:22;38.90;;;34.85;;
2175;SDS011;1094;49.902;10.876;2022-12-11T05:40:55;36.90;;;32.80;;
2175;SDS011;1094;49.902;10.876;2022-12-11T05:43:21;38.33;;;34.22;;
2175;SDS011;1094;49.902;10.876;2022-12-11T05:45:47;35.83;;;32.13;;
2175;SDS011;1094;49.902;10.876;2022-12-11T05:48:13;32.90;;;30.00;;
2175;SDS011;1094;49.902;10.876;2022-12-11T05:50:39;38.93;;;35.00;;
2175;SDS011;1094;49.902;10.876;2022-12-11T05:53:05;36.77;;;33.30;;
2175;SDS011;1094;49.902;10.876;2022-12-11T05:55:34;37.30;;;33.57;;
2175;SDS011;1094;49.902;10.876;2022-12-11T05:58:00;36.13;;;32.70;;
2175;SDS011;1094;49.902;10.876;2022-12-11T06:00:27;35.28;;;31.83;;
2175;SDS011;1094;49.902;10.876;2022-12-11T06:02:53;37.88;;;33.63;;
2175;SDS011;1094;49.902;10.876;2022-12-11T06:05:21;37.37;;;33.57;;
2175;SDS011;1094;49.902;10.876;2022-12-11T06:07:47;35.85;;;32.17;;
2175;SDS011;1094;49.902;10.876;2022-12-11T06:10:13;37.00;;;33.40;;
2175;SDS011;1094;49.902;10.876;2022-12-11T06:12:39;39.37;;;35.10;;
2175;SDS011;1094;49.902;10.876;2022-12-11T06:15:05;35.72;;;32.10;;
2175;SDS011;1094;49.902;10.876;2022-12-11T06:17:32;36.35;;;32.40;;
2175;SDS011;1094;49.902;10.876;2022-12-11T06:19:58;35.65;;;32.33;;
2175;SDS011;1094;49.902;10.876;2022-12-11T06:22:24;34.70;;;31.23;;
2175;SDS011;1094;49.902;10.876;2022-12-11T06:24:50;35.37;;;31.97;;
2175;SDS011;1094;49.902;10.876;2022-12-11T06:27:16;37.07;;;33.10;;
2175;SDS011;1094;49.902;10.876;2022-12-11T06:29:43;37.47;;;33.50;;
2175;SDS011;1094;49.902;10.876;2022-12-11T06:32:09;36.80;;;33.07;;
2175;SDS011;1094;49.902;10.876;2022-12-11T06:34:35;34.87;;;31.43;;
2175;SDS011;1094;49.902;10.876;2022-12-11T06:37:01;34.60;;;31.40;;
2175;SDS011;1094;49.902;10.876;2022-12-11T06:39:27;36.10;;;32.70;;
2175;SDS011;1094;49.902;10.876;2022-12-11T06:41:52;37.97;;;33.83;;
2175;SDS011;1094;49.902;10.876;2022-12-11T06:44:18;35.57;;;31.20;;
2175;SDS011;1094;49.902;10.876;2022-12-11T06:46:44;33.90;;;30.50;;
2175;SDS011;1094;49.902;10.876;2022-12-11T06:49:10;34.80;;;31.20;;
2175;SDS011;1094;49.902;10.876;2022-12-11T06:51:36;39.10;;;35.33;;
2175;SDS011;1094;49.902;10.876;2022-12-11T06:54:02;35.53;;;32.05;;
2175;SDS011;1094;49.902;10.876;2022-12-11T06:56:28;35.78;;;32.03;;
2175;SDS011;1094;49.902;10.876;2022-12-11T06:58:54;36.60;;;32.70;;
2175;SDS011;1094;49.902;10.876;2022-12-11T07:01:24;37.10;;;33.60;;
2175;SDS011;1094;49.902;10.876;2022-12-11T07:03:52;35.53;;;32.03;;
2175;SDS011;1094;49.902;10.876;2022-12-11T07:06:18;33.60;;;30.35;;
2175;SDS011;1094;49.902;10.876;2022-12-11T07:08:44;35.80;;;32.50;;
2175;SDS011;1094;49.902;10.876;2022-12-11T07:11:11;34.53;;;30.92;;
2175;SDS011;1094;49.902;10.876;2022-12-11T07:13:38;33.53;;;30.38;;
2175;SDS011;1094;49.902;10.876;2022-12-11T07:16:05;34.35;;;31.05;;
2175;SDS011;1094;49.902;10.876;2022-12-11T07:18:34;31.23;;;28.42;;
2175;SDS011;1094;49.902;10.876;2022-12-11T07:21:00;33.58;;;30.08;;
2175;SDS011;1094;49.902;10.876;2022-12-11T07:23:27;34.37;;;31.10;;
2175;SDS011;1094;49.902;10.876;2022-12-11T07:25:53;34.50;;;31.20;;
2175;SDS011;1094;49.902;10.876;2022-12-11T07:28:19;36.83;;;33.08;;
2175;SDS011;1094;49.902;10.876;2022-12-11T07:30:45;33.90;;;30.50;;
2175;SDS011;1094;49.902;10.876;2022-12-11T07:33:11;34.43;;;31.00;;
2175;SDS011;1094;49.902;10.876;2022-12-11T07:35:37;34.23;;;31.03;;
2175;SDS011;1094;49.902;10.876;2022-12-11T07:38:03;34.20;;;30.87;;
2175;SDS011;1094;49.902;10.876;2022-12-11T07:40:29;32.20;;;29.03;;
2175;SDS011;1094;49.902;10.876;2022-12-11T07:42:55;36.20;;;32.67;;
2175;SDS011;1094;49.902;10.876;2022-12-11T07:45:21;36.10;;;32.40;;
2175;SDS011;1094;49.902;10.876;2022-12-11T07:47:47;35.00;;;31.63;;
2175;SDS011;1094;49.902;10.876;2022-12-11T07:50:13;33.95;;;30.90;;
2175;SDS011;1094;49.902;10.876;2022-12-11T07:52:39;34.22;;;30.00;;
2175;SDS011;1094;49.902;10.876;2022-12-11T07:55:05;33.65;;;30.42;;
2175;SDS011;1094;49.902;10.876;2022-12-11T07:57:31;33.30;;;30.38;;
2175;SDS011;1094;49.902;10.876;2022-12-11T07:59:57;32.50;;;29.20;;
2175;SDS011;1094;49.902;10.876;2022-12-11T08:02:23;33.87;;;30.60;;
2175;SDS011;1094;49.902;10.876;2022-12-11T08:04:49;34.17;;;31.00;;
2175;SDS011;1094;49.902;10.876;2022-12-11T08:07:15;36.40;;;32.13;;
2175;SDS011;1094;49.902;10.876;2022-12-11T08:09:41;34.20;;;30.70;;
2175;SDS011;1094;49.902;10.876;2022-12-11T08:12:07;34.47;;;30.77;;
2175;SDS011;1094;49.902;10.876;2022-12-11T08:14:33;31.73;;;28.50;;
2175;SDS011;1094;49.902;10.876;2022-12-11T08:16:59;32.53;;;29.63;;
2175;SDS011;1094;49.902;10.876;2022-12-11T08:19:26;32.75;;;29.95;;
2175;SDS011;1094;49.902;10.876;2022-12-11T08:21:52;32.83;;;29.80;;
2175;SDS011;1094;49.902;10.876;2022-12-11T08:24:18;33.33;;;30.20;;
2175;SDS011;1094;49.902;10.876;2022-12-11T08:26:45;30.45;;;27.70;;
2175;SDS011;1094;49.902;10.876;2022-12-11T08:29:11;32.20;;;29.38;;
2175;SDS011;1094;49.902;10.876;2022-12-11T08:31:40;34.30;;;30.77;;
2175;SDS011;1094;49.902;10.876;2022-12-11T08:34:06;34.85;;;31.35;;
2175;SDS011;1094;49.902;10.876;2022-12-11T08:36:32;31.45;;;28.83;;
2175;SDS011;1094;49.902;10.876;2022-12-11T08:38:58;32.37;;;29.47;;
2175;SDS011;1094;49.902;10.876;2022-12-11T08:41:28;32.85;;;29.67;;
2175;SDS011;1094;49.902;10.876;2022-12-11T08:43:54;31.10;;;28.38;;
2175;SDS011;1094;49.902;10.876;2022-12-11T08:46:22;32.83;;;29.52;;
2175;SDS011;1094;49.902;10.876;2022-12-11T08:48:48;32.72;;;29.73;;
2175;SDS011;1094;49.902;10.876;2022-12-11T08:51:15;32.75;;;29.60;;
2175;SDS011;1094;49.902;10.876;2022-12-11T08:53:42;31.88;;;29.23;;
2175;SDS011;1094;49.902;10.876;2022-12-11T08:56:12;32.83;;;29.90;;
2175;SDS011;1094;49.902;10.876;2022-12-11T08:58:38;31.90;;;28.80;;
2175;SDS011;1094;49.902;10.876;2022-12-11T09:01:15;33.45;;;29.77;;
2175;SDS011;1094;49.902;10.876;2022-12-11T09:03:41;31.75;;;28.85;;
2175;SDS011;1094;49.902;10.876;2022-12-11T09:06:08;31.53;;;28.37;;
2175;SDS011;1094;49.902;10.876;2022-12-11T09:08:34;32.70;;;29.63;;
2175;SDS011;1094;49.902;10.876;2022-12-11T09:11:01;33.40;;;30.17;;
2175;SDS011;1094;49.902;10.876;2022-12-11T09:13:27;31.30;;;28.42;;
2175;SDS011;1094;49.902;10.876;2022-12-11T09:15:53;30.10;;;27.53;;
2175;SDS011;1094;49.902;10.876;2022-12-11T09:18:19;32.03;;;29.33;;
2175;SDS011;1094;49.902;10.876;2022-12-11T09:20:45;31.13;;;28.23;;
2175;SDS011;1094;49.902;10.876;2022-12-11T09:23:11;29.63;;;26.80;;
2175;SDS011;1094;49.902;10.876;2022-12-11T09:25:40;31.50;;;28.70;;
2175;SDS011;1094;49.902;10.876;2022-12-11T09:28:06;29.43;;;26.73;;
2175;SDS011;1094;49.902;10.876;2022-12-11T09:30:32;31.13;;;28.23;;
2175;SDS011;1094;49.902;10.876;2022-12-11T09:32:58;29.37;;;27.00;;
2175;SDS011;1094;49.902;10.876;2022-12-11T09:35:24;31.20;;;28.47;;
2175;SDS011;1094;49.902;10.876;2022-12-11T09:37:50;31.30;;;28.60;;
2175;SDS011;1094;49.902;10.876;2022-12-11T09:40:16;29.37;;;26.80;;
2175;SDS011;1094;49.902;10.876;2022-12-11T09:45:09;30.97;;;28.17;;
2175;SDS011;1094;49.902;10.876;2022-12-11T09:47:39;31.23;;;28.53;;
2175;SDS011;1094;49.902;10.876;2022-12-11T09:52:51;29.83;;;27.23;;
2175;SDS011;1094;49.902;10.876;2022-12-11T09:55:19;29.20;;;26.60;;
2175;SDS011;1094;49.902;10.876;2022-12-11T09:57:54;29.83;;;27.23;;
2175;SDS011;1094;49.902;10.876;2022-12-11T10:00:27;30.27;;;27.67;;
2175;SDS011;1094;49.902;10.876;2022-12-11T10:05:46;30.63;;;27.73;;
2175;SDS011;1094;49.902;10.876;2022-12-11T10:08:22;31.30;;;28.50;;
2175;SDS011;1094;49.902;10.876;2022-12-11T10:10:58;30.40;;;27.93;;
2175;SDS011;1094;49.902;10.876;2022-12-11T10:15:58;29.63;;;27.33;;
2175;SDS011;1094;49.902;10.876;2022-12-11T10:18:25;30.13;;;27.47;;
2175;SDS011;1094;49.902;10.876;2022-12-11T10:20:53;29.23;;;26.80;;
2175;SDS011;1094;49.902;10.876;2022-12-11T10:23:21;32.00;;;28.87;;
2175;SDS011;1094;49.902;10.876;2022-12-11T10:25:53;30.17;;;27.83;;
2175;SDS011;1094;49.902;10.876;2022-12-11T10:28:21;30.37;;;27.50;;
2175;SDS011;1094;49.902;10.876;2022-12-11T10:30:50;30.03;;;27.47;;
2175;SDS011;1094;49.902;10.876;2022-12-11T10:33:20;30.77;;;27.73;;
2175;SDS011;1094;49.902;10.876;2022-12-11T10:35:49;30.73;;;27.93;;
2175;SDS011;1094;49.902;10.876;2022-12-11T10:38:20;31.43;;;28.43;;
2175;SDS011;1094;49.902;10.876;2022-12-11T10:40:48;32.40;;;29.30;;
2175;SDS011;1094;49.902;10.876;2022-12-11T10:43:15;31.87;;;29.10;;
2175;SDS011;1094;49.902;10.876;2022-12-11T10:45:51;30.90;;;28.20;;
2175;SDS011;1094;49.902;10.876;2022-12-11T10:48:18;30.57;;;27.80;;
2175;SDS011;1094;49.902;10.876;2022-12-11T10:50:44;29.60;;;27.00;;
2175;SDS011;1094;49.902;10.876;2022-12-11T10:53:19;29.83;;;27.00;;
2175;SDS011;1094;49.902;10.876;2022-12-11T10:55:46;28.93;;;26.70;;
2175;SDS011;1094;49.902;10.876;2022-12-11T10:58:15;30.70;;;28.00;;
2175;SDS011;1094;49.902;10.876;2022-12-11T11:00:42;30.93;;;28.07;;
2175;SDS011;1094;49.902;10.876;2022-12-11T11:03:19;32.30;;;29.20;;
2175;SDS011;1094;49.902;10.876;2022-12-11T11:05:46;31.77;;;28.93;;
2175;SDS011;1094;49.902;10.876;2022-12-11T11:08:15;30.43;;;27.83;;
2175;SDS011;1094;49.902;10.876;2022-12-11T11:10:56;30.20;;;27.90;;
2175;SDS011;1094;49.902;10.876;2022-12-11T11:13:23;29.10;;;26.50;;
2175;SDS011;1094;49.902;10.876;2022-12-11T11:15:56;30.63;;;28.03;;
2175;SDS011;1094;49.902;10.876;2022-12-11T11:18:24;30.67;;;27.87;;
2175;SDS011;1094;49.902;10.876;2022-12-11T11:20:51;30.17;;;27.67;;
2175;SDS011;1094;49.902;10.876;2022-12-11T11:23:17;29.83;;;27.10;;
2175;SDS011;1094;49.902;10.876;2022-12-11T11:25:55;29.67;;;27.13;;
2175;SDS011;1094;49.902;10.876;2022-12-11T11:30:55;28.53;;;26.00;;
2175;SDS011;1094;49.902;10.876;2022-12-11T11:33:22;29.67;;;27.17;;
2175;SDS011;1094;49.902;10.876;2022-12-11T11:35:52;30.03;;;27.63;;
2175;SDS011;1094;49.902;10.876;2022-12-11T11:38:20;29.10;;;26.47;;
2175;SDS011;1094;49.902;10.876;2022-12-11T11:45:55;28.87;;;26.33;;
2175;SDS011;1094;49.902;10.876;2022-12-11T11:50:48;29.90;;;27.30;;
2175;SDS011;1094;49.902;10.876;2022-12-11T11:58:23;29.37;;;26.87;;
2175;SDS011;1094;49.902;10.876;2022-12-11T12:00:54;27.80;;;25.37;;
2175;SDS011;1094;49.902;10.876;2022-12-11T12:03:20;28.23;;;25.93;;
2175;SDS011;1094;49.902;10.876;2022-12-11T12:05:53;26.73;;;24.80;;
2175;SDS011;1094;49.902;10.876;2022-12-11T12:08:40;27.77;;;25.60;;
2175;SDS011;1094;49.902;10.876;2022-12-11T12:11:10;25.97;;;24.23;;
2175;SDS011;1094;49.902;10.876;2022-12-11T12:16:33;24.90;;;23.00;;
2175;SDS011;1094;49.902;10.876;2022-12-11T12:19:14;25.50;;;23.50;;
2175;SDS011;1094;49.902;10.876;2022-12-11T12:21:42;24.77;;;22.77;;
2175;SDS011;1094;49.902;10.876;2022-12-11T12:26:40;26.13;;;24.03;;
2175;SDS011;1094;49.902;10.876;2022-12-11T12:35:01;26.03;;;23.90;;
2175;SDS011;1094;49.902;10.876;2022-12-11T12:37:38;26.17;;;24.20;;
2175;SDS011;1094;49.902;10.876;2022-12-11T12:40:13;25.20;;;23.30;;
2175;SDS011;1094;49.902;10.876;2022-12-11T12:47:37;26.70;;;24.70;;
2175;SDS011;1094;49.902;10.876;2022-12-11T12:50:03;25.30;;;23.57;;
2175;SDS011;1094;49.902;10.876;2022-12-11T12:52:38;26.60;;;24.80;;
2175;SDS011;1094;49.902;10.876;2022-12-11T12:57:51;27.23;;;24.90;;
2175;SDS011;1094;49.902;10.876;2022-12-11T13:00:28;26.13;;;24.17;;
2175;SDS011;1094;49.902;10.876;2022-12-11T13:02:55;26.30;;;24.30;;
2175;SDS011;1094;49.902;10.876;2022-12-11T13:08:05;26.20;;;24.30;;
2175;SDS011;1094;49.902;10.876;2022-12-11T13:10:35;25.77;;;23.87;;
2175;SDS011;1094;49.902;10.876;2022-12-11T13:13:03;25.27;;;23.47;;
2175;SDS011;1094;49.902;10.876;2022-12-11T13:15:37;25.33;;;23.33;;
2175;SDS011;1094;49.902;10.876;2022-12-11T13:20:49;26.67;;;24.87;;
2175;SDS011;1094;49.902;10.876;2022-12-11T13:23:27;26.40;;;24.50;;
2175;SDS011;1094;49.902;10.876;2022-12-11T13:25:54;27.73;;;25.50;;
2175;SDS011;1094;49.902;10.876;2022-12-11T13:28:32;26.63;;;24.67;;
2175;SDS011;1094;49.902;10.876;2022-12-11T13:31:03;26.60;;;24.53;;
2175;SDS011;1094;49.902;10.876;2022-12-11T13:33:29;27.03;;;25.03;;
2175;SDS011;1094;49.902;10.876;2022-12-11T13:38:34;25.43;;;23.70;;
2175;SDS011;1094;49.902;10.876;2022-12-11T13:41:01;27.33;;;25.13;;
2175;SDS011;1094;49.902;10.876;2022-12-11T13:43:30;26.93;;;25.17;;
2175;SDS011;1094;49.902;10.876;2022-12-11T13:45:58;26.88;;;24.98;;
2175;SDS011;1094;49.902;10.876;2022-12-11T13:48:31;27.48;;;25.50;;
2175;SDS011;1094;49.902;10.876;2022-12-11T13:50:58;28.30;;;26.00;;
2175;SDS011;1094;49.902;10.876;2022-12-11T13:53:25;28.67;;;26.20;;
2175;SDS011;1094;49.902;10.876;2022-12-11T13:55:55;28.73;;;26.45;;
2175;SDS011;1094;49.902;10.876;2022-12-11T13:58:22;28.15;;;26.05;;
2175;SDS011;1094;49.902;10.876;2022-12-11T14:03:23;26.70;;;24.95;;
2175;SDS011;1094;49.902;10.876;2022-12-11T14:05:49;28.05;;;25.85;;
2175;SDS011;1094;49.902;10.876;2022-12-11T14:08:16;27.37;;;25.20;;
2175;SDS011;1094;49.902;10.876;2022-12-11T14:10:45;27.92;;;25.63;;
2175;SDS011;1094;49.902;10.876;2022-12-11T14:13:18;27.95;;;25.75;;
2175;SDS011;1094;49.902;10.876;2022-12-11T14:15:46;27.55;;;25.63;;
2175;SDS011;1094;49.902;10.876;2022-12-11T14:18:13;28.27;;;26.13;;
2175;SDS011;1094;49.902;10.876;2022-12-11T14:20:40;29.33;;;26.83;;
2175;SDS011;1094;49.902;10.876;2022-12-11T14:23:15;28.30;;;26.10;;
2175;SDS011;1094;49.902;10.876;2022-12-11T14:25:41;27.25;;;25.33;;
2175;SDS011;1094;49.902;10.876;2022-12-11T14:28:16;28.63;;;26.40;;
2175;SDS011;1094;49.902;10.876;2022-12-11T14:30:45;27.20;;;25.00;;
2175;SDS011;1094;49.902;10.876;2022-12-11T14:33:12;30.00;;;27.55;;
2175;SDS011;1094;49.902;10.876;2022-12-11T14:35:39;28.38;;;26.08;;
2175;SDS011;1094;49.902;10.876;2022-12-11T14:38:11;30.13;;;27.83;;
2175;SDS011;1094;49.902;10.876;2022-12-11T14:40:41;28.27;;;26.15;;
2175;SDS011;1094;49.902;10.876;2022-12-11T14:43:29;29.38;;;26.70;;
2175;SDS011;1094;49.902;10.876;2022-12-11T14:45:55;28.75;;;26.50;;
2175;SDS011;1094;49.902;10.876;2022-12-11T14:48:23;28.95;;;26.83;;
2175;SDS011;1094;49.902;10.876;2022-12-11T14:50:52;29.50;;;27.00;;
2175;SDS011;1094;49.902;10.876;2022-12-11T14:53:20;27.95;;;25.80;;
2175;SDS011;1094;49.902;10.876;2022-12-11T14:55:47;28.90;;;26.75;;
2175;SDS011;1094;49.902;10.876;2022-12-11T15:00:43;27.92;;;25.70;;
2175;SDS011;1094;49.902;10.876;2022-12-11T15:05:48;28.45;;;26.10;;
2175;SDS011;1094;49.902;10.876;2022-12-11T15:08:37;27.73;;;25.63;;
2175;SDS011;1094;49.902;10.876;2022-12-11T15:11:03;27.73;;;25.58;;
2175;SDS011;1094;49.902;10.876;2022-12-11T15:13:29;29.77;;;27.15;;
2175;SDS011;1094;49.902;10.876;2022-12-11T15:15:55;27.77;;;25.70;;
2175;SDS011;1094;49.902;10.876;2022-12-11T15:18:24;29.33;;;26.77;;
2175;SDS011;1094;49.902;10.876;2022-12-11T15:20:51;29.40;;;26.92;;
2175;SDS011;1094;49.902;10.876;2022-12-11T15:23:18;28.10;;;25.90;;
2175;SDS011;1094;49.902;10.876;2022-12-11T15:25:50;27.40;;;25.40;;
2175;SDS011;1094;49.902;10.876;2022-12-11T15:28:25;28.23;;;26.00;;
2175;SDS011;1094;49.902;10.876;2022-12-11T15:30:55;26.60;;;24.38;;
2175;SDS011;1094;49.902;10.876;2022-12-11T15:33:21;28.40;;;25.85;;
2175;SDS011;1094;49.902;10.876;2022-12-11T15:36:04;27.00;;;24.80;;
2175;SDS011;1094;49.902;10.876;2022-12-11T15:40:56;27.50;;;25.40;;
2175;SDS011;1094;49.902;10.876;2022-12-11T15:43:22;28.63;;;26.48;;
2175;SDS011;1094;49.902;10.876;2022-12-11T15:45:49;28.35;;;26.25;;
2175;SDS011;1094;49.902;10.876;2022-12-11T15:48:15;28.75;;;26.63;;
2175;SDS011;1094;49.902;10.876;2022-12-11T15:50:41;28.60;;;26.50;;
2175;SDS011;1094;49.902;10.876;2022-12-11T15:53:07;29.70;;;27.13;;
2175;SDS011;1094;49.902;10.876;2022-12-11T15:55:33;30.63;;;27.73;;
2175;SDS011;1094;49.902;10.876;2022-12-11T15:58:00;29.60;;;27.13;;
2175;SDS011;1094;49.902;10.876;2022-12-11T16:00:26;30.20;;;27.70;;
2175;SDS011;1094;49.902;10.876;2022-12-11T16:02:53;29.80;;;27.08;;